Terminal Aerodrome Forecast
Issued by NWS

Home | Current Version | Previous Version | Text Only | Print | Product List | Glossary Off
Versions: 1 2 3 4 5 6 7 8 9 10 11 12 13 14 15 16 17 18

000
FTUS43 KTOP 271720
TAFMHK
TAF
KMHK 271720Z 2718/2818 02006KT P6SM BKN015
     FM272100 01006KT P6SM BKN020
     FM272200 02006KT P6SM SCT020
     FM280900 VRB03KT 4SM BR SCT020
     FM281500 09006KT P6SM SCT020=

USA.gov is the U.S. government's official web portal to all federal, state and local government web resources and services.